Time;durP1;ratioP1;P1;durP2;ratioP2;P2;SDS_P1;SDS_P2;PMS_P1;PMS_P2;Temp;Humidity;BMP_temperature;BMP_pressure;BME280_temperature;BME280_humidity;BME280_pressure;Samples;Min_cycle;Max_cycle;Signal;HPM_P1;HPM_P2
2022/11/13 00:00:06;;;;;;;46.07;16.13;;;9.80;99.90;;;;;;5086503;28;20475;-60
2022/11/13 00:02:33;;;;;;;73.47;22.20;;;;;;;;;;5070690;28;20720;-61
2022/11/13 00:05:01;;;;;;;59.30;18.73;;;9.90;99.90;;;;;;5075232;27;20502;-60
2022/11/13 00:07:27;;;;;;;54.30;17.77;;;9.90;99.90;;;;;;5075096;28;20811;-61
2022/11/13 00:09:54;;;;;;;53.37;19.43;;;10.00;99.90;;;;;;5071909;28;20535;-60
2022/11/13 00:12:21;;;;;;;64.87;18.53;;;10.00;99.90;;;;;;5078763;28;20490;-60
2022/11/13 00:14:49;;;;;;;51.70;17.90;;;;;;;;;;5068887;28;20501;-60
2022/11/13 00:17:16;;;;;;;47.50;17.23;;;;;;;;;;5069477;28;20474;-61
2022/11/13 00:19:43;;;;;;;50.67;16.83;;;;;;;;;;5076206;28;21246;-60
2022/11/13 00:22:10;;;;;;;40.27;16.57;;;;;;;;;;5052232;28;20497;-61
2022/11/13 00:24:37;;;;;;;56.53;21.00;;;;;;;;;;5075716;28;20885;-61
2022/11/13 00:27:04;;;;;;;43.23;16.93;;;9.70;99.90;;;;;;5068460;28;20478;-61
2022/11/13 00:29:31;;;;;;;50.27;18.00;;;9.70;99.90;;;;;;5076268;28;20494;-61
2022/11/13 00:31:59;;;;;;;43.27;17.53;;;;;;;;;;5068197;28;20471;-61
2022/11/13 00:34:26;;;;;;;51.17;17.40;;;9.80;99.90;;;;;;5067153;28;20836;-60
2022/11/13 00:36:53;;;;;;;50.10;17.63;;;;;;;;;;5073440;28;20489;-60
2022/11/13 00:39:20;;;;;;;45.97;16.97;;;9.90;99.90;;;;;;5072426;28;20485;-60
2022/11/13 00:41:47;;;;;;;50.53;17.13;;;9.90;99.90;;;;;;5069206;28;20479;-60
2022/11/13 00:44:14;;;;;;;47.63;17.57;;;;;;;;;;5069385;28;20490;-59
2022/11/13 00:46:40;;;;;;;47.40;17.60;;;10.10;99.90;;;;;;5071214;28;20800;-60
2022/11/13 00:49:09;;;;;;;36.40;16.17;;;;;;;;;;5066498;28;21705;-60
2022/11/13 00:51:36;;;;;;;58.10;22.00;;;;;;;;;;5073412;28;20475;-59
2022/11/13 00:54:03;;;;;;;54.10;17.33;;;;;;;;;;5069998;28;20497;-60
2022/11/13 00:56:30;;;;;;;59.17;18.80;;;10.00;99.90;;;;;;5072921;28;20591;-60
2022/11/13 00:58:56;;;;;;;50.40;18.73;;;9.90;99.90;;;;;;5071642;28;20486;-60
2022/11/13 01:01:23;;;;;;;64.10;19.20;;;9.90;99.90;;;;;;5067996;28;20478;-60
2022/11/13 01:03:50;;;;;;;63.43;17.73;;;9.90;99.90;;;;;;5069609;28;20489;-60
2022/11/13 01:06:21;;;;;;;55.60;18.40;;;9.90;99.90;;;;;;5072438;28;20852;-60
2022/11/13 01:08:48;;;;;;;48.37;17.10;;;9.80;99.90;;;;;;5059044;28;20463;-59
2022/11/13 01:11:16;;;;;;;35.60;14.60;;;;;;;;;;5061015;28;20466;-60
2022/11/13 01:13:45;;;;;;;76.07;19.53;;;9.90;99.90;;;;;;5067667;28;20575;-60
2022/11/13 01:16:13;;;;;;;53.00;16.63;;;9.80;99.90;;;;;;5072326;28;20478;-60
2022/11/13 01:18:41;;;;;;;61.50;18.83;;;9.70;99.90;;;;;;5060890;28;21248;-60
2022/11/13 01:21:11;;;;;;;52.87;14.70;;;9.70;99.90;;;;;;5084444;28;21114;-60
2022/11/13 01:23:40;;;;;;;64.23;17.87;;;9.70;99.90;;;;;;5069989;28;20481;-60
2022/11/13 01:26:12;;;;;;;39.77;12.47;;;9.60;99.90;;;;;;5069194;28;20489;-60
2022/11/13 01:28:40;;;;;;;58.17;18.70;;;;;;;;;;5070440;28;20495;-60
2022/11/13 01:31:07;;;;;;;42.43;11.93;;;9.50;99.90;;;;;;5071953;28;20483;-60
2022/11/13 01:33:34;;;;;;;51.27;16.53;;;9.50;99.90;;;;;;5066226;28;20490;-60
2022/11/13 01:36:01;;;;;;;40.67;14.70;;;9.60;99.90;;;;;;5072451;28;20467;-60
2022/11/13 01:38:29;;;;;;;36.77;14.97;;;9.50;99.90;;;;;;5057232;28;20478;-60
2022/11/13 01:40:57;;;;;;;60.70;15.77;;;;;;;;;;5085125;28;20478;-60
2022/11/13 01:43:26;;;;;;;45.57;14.27;;;9.60;99.90;;;;;;5066098;28;20477;-60
2022/11/13 01:46:07;;;;;;;41.67;13.37;;;9.50;99.90;;;;;;5060152;28;20840;-59
2022/11/13 01:48:38;;;;;;;56.90;18.27;;;9.50;99.90;;;;;;5060876;28;20966;-60
2022/11/13 01:51:11;;;;;;;48.57;13.37;;;9.50;99.90;;;;;;5085307;28;20479;-60
2022/11/13 01:53:38;;;;;;;53.43;17.40;;;9.60;99.90;;;;;;5066374;28;21095;-59
2022/11/13 01:56:07;;;;;;;44.17;12.90;;;10.30;99.90;;;;;;5069751;28;20482;-60
2022/11/13 01:58:35;;;;;;;59.67;17.70;;;;;;;;;;5069984;28;20870;-59
2022/11/13 02:01:02;;;;;;;40.10;13.63;;;9.40;99.90;;;;;;5048319;28;20977;-59
2022/11/13 02:03:28;;;;;;;49.20;16.50;;;9.40;99.90;;;;;;5078389;28;20485;-60
2022/11/13 02:05:56;;;;;;;49.63;11.83;;;9.40;99.90;;;;;;5072606;28;20839;-60
2022/11/13 02:08:23;;;;;;;50.77;12.37;;;;;;;;;;5071854;28;20470;-59
2022/11/13 02:10:50;;;;;;;62.50;14.73;;;9.30;99.90;;;;;;5069217;28;20886;-59
2022/11/13 02:13:18;;;;;;;46.23;13.73;;;;;;;;;;5068283;28;20485;-59
2022/11/13 02:15:46;;;;;;;56.30;14.10;;;;;;;;;;5070406;28;20990;-59
2022/11/13 02:18:15;;;;;;;29.13;12.80;;;9.30;99.90;;;;;;5068129;28;20914;-59
2022/11/13 02:20:50;;;;;;;47.43;12.80;;;9.20;99.90;;;;;;5068513;28;20475;-59
2022/11/13 02:23:24;;;;;;;48.60;14.70;;;9.20;99.90;;;;;;5067904;28;20466;-59
2022/11/13 02:25:53;;;;;;;48.83;13.70;;;;;;;;;;5066548;28;20474;-59
2022/11/13 02:28:26;;;;;;;44.10;14.60;;;;;;;;;;5070947;28;20482;-60
2022/11/13 02:30:53;;;;;;;38.23;12.93;;;;;;;;;;5074596;28;20482;-60
2022/11/13 02:33:24;;;;;;;59.17;15.13;;;9.10;99.90;;;;;;5071140;28;20489;-59
2022/11/13 02:35:51;;;;;;;44.43;15.00;;;;;;;;;;5073833;28;20648;-60
2022/11/13 02:38:18;;;;;;;50.83;13.27;;;9.10;99.90;;;;;;5069782;28;20493;-60
2022/11/13 02:40:44;;;;;;;47.27;14.97;;;9.00;99.90;;;;;;5070005;28;20477;-60
2022/11/13 02:43:13;;;;;;;42.40;12.27;;;9.00;99.90;;;;;;5066946;28;20482;-60
2022/11/13 02:45:39;;;;;;;73.20;17.30;;;8.90;99.90;;;;;;5068646;28;21936;-60
2022/11/13 02:48:07;;;;;;;39.47;12.67;;;8.90;99.90;;;;;;5069712;28;20475;-59
2022/11/13 02:50:35;;;;;;;57.10;16.63;;;8.80;99.90;;;;;;5069864;28;20483;-60
2022/11/13 02:53:02;;;;;;;51.60;12.73;;;7.70;99.90;;;;;;5068217;28;20997;-60
2022/11/13 02:55:29;;;;;;;68.77;19.03;;;;;;;;;;5070859;28;20667;-60
2022/11/13 02:57:56;;;;;;;50.40;15.50;;;;;;;;;;5068422;28;21028;-59
2022/11/13 03:00:24;;;;;;;64.43;17.10;;;8.70;99.90;;;;;;5068108;28;20506;-60
2022/11/13 03:02:51;;;;;;;64.37;17.07;;;8.70;99.90;;;;;;5065491;28;20477;-60
2022/11/13 03:05:18;;;;;;;54.53;13.53;;;8.60;99.90;;;;;;5060735;28;20553;-59
2022/11/13 03:07:45;;;;;;;52.73;12.27;;;8.50;99.90;;;;;;5070814;28;20481;-60
2022/11/13 03:10:12;;;;;;;42.63;11.50;;;8.60;99.90;;;;;;5070227;28;20481;-60
2022/11/13 03:12:39;;;;;;;60.83;16.37;;;6.10;99.90;;;;;;5075262;28;20487;-59
2022/11/13 03:15:07;;;;;;;49.70;11.03;;;8.50;99.90;;;;;;5069914;28;20905;-59
2022/11/13 03:17:36;;;;;;;55.37;15.30;;;;;;;;;;5076477;28;20510;-59
2022/11/13 03:20:03;;;;;;;35.53;11.13;;;;;;;;;;5075580;28;20482;-60
2022/11/13 03:22:30;;;;;;;67.17;14.87;;;8.40;99.90;;;;;;5077592;28;20473;-59
2022/11/13 03:24:57;;;;;;;60.83;13.63;;;8.40;99.90;;;;;;5076305;28;20474;-60
2022/11/13 03:27:23;;;;;;;35.17;11.63;;;8.30;99.90;;;;;;5074821;28;20565;-60
2022/11/13 03:29:50;;;;;;;38.23;11.13;;;8.30;99.90;;;;;;5078435;28;20480;-60
2022/11/13 03:32:17;;;;;;;45.07;12.00;;;8.30;99.90;;;;;;5078579;28;20482;-60
2022/11/13 03:34:45;;;;;;;51.83;13.30;;;;;;;;;;5072764;28;20482;-60
2022/11/13 03:37:12;;;;;;;65.30;11.30;;;8.10;99.90;;;;;;5076821;28;20481;-60
2022/11/13 03:39:39;;;;;;;46.17;14.10;;;;;;;;;;5074944;28;20723;-59
2022/11/13 03:42:06;;;;;;;29.97;11.23;;;;;;;;;;5070528;28;20501;-59
2022/11/13 03:44:33;;;;;;;55.57;12.43;;;;;;;;;;5089585;28;20565;-59
2022/11/13 03:47:00;;;;;;;29.07;10.97;;;8.20;99.90;;;;;;5073507;28;20512;-60
2022/11/13 03:49:27;;;;;;;51.67;13.90;;;8.20;99.90;;;;;;5072151;28;20498;-60
2022/11/13 03:51:55;;;;;;;28.27;11.30;;;8.30;99.90;;;;;;5074900;28;20566;-60
2022/11/13 03:54:22;;;;;;;38.37;9.70;;;8.00;99.90;;;;;;5067953;28;20485;-60
2022/11/13 03:56:49;;;;;;;23.60;8.60;;;;;;;;;;5067616;28;20470;-60
2022/11/13 03:59:15;;;;;;;63.77;11.37;;;8.00;99.90;;;;;;5076685;28;20482;-60
2022/11/13 04:01:42;;;;;;;51.47;14.17;;;;;;;;;;5075101;28;20474;-60
2022/11/13 04:04:10;;;;;;;34.80;8.80;;;;;;;;;;5075196;28;20501;-60
2022/11/13 04:06:36;;;;;;;55.03;12.80;;;7.90;99.90;;;;;;5073850;28;20961;-59
2022/11/13 04:09:05;;;;;;;25.43;8.87;;;7.90;99.90;;;;;;5083908;28;20932;-60
2022/11/13 04:11:32;;;;;;;46.93;16.20;;;;;;;;;;5076092;28;20886;-60
2022/11/13 04:13:59;;;;;;;35.70;10.00;;;;;;;;;;5071206;28;21037;-60
2022/11/13 04:16:26;;;;;;;28.00;10.17;;;;;;;;;;5075873;28;20485;-60
2022/11/13 04:18:53;;;;;;;32.50;11.30;;;7.80;99.90;;;;;;5075918;28;20983;-59
2022/11/13 04:21:20;;;;;;;45.87;11.20;;;;;;;;;;5076530;28;20562;-59
2022/11/13 04:23:47;;;;;;;35.27;11.37;;;7.80;99.90;;;;;;5074597;28;20513;-59
2022/11/13 04:26:15;;;;;;;27.73;9.03;;;7.80;99.90;;;;;;5076326;28;20845;-59
2022/11/13 04:28:41;;;;;;;45.40;14.27;;;7.80;99.90;;;;;;5073349;28;20482;-60
2022/11/13 04:31:08;;;;;;;36.00;11.50;;;7.80;99.90;;;;;;5069139;28;21054;-59
2022/11/13 04:33:35;;;;;;;50.97;16.07;;;7.80;99.90;;;;;;5079608;28;20509;-59
2022/11/13 04:36:02;;;;;;;41.47;9.60;;;7.80;99.90;;;;;;5070563;28;20513;-60
2022/11/13 04:38:29;;;;;;;46.03;12.90;;;;;;;;;;5073144;28;20466;-59
2022/11/13 04:43:38;;;;;;;49.13;13.37;;;7.80;99.90;;;;;;5069683;28;20888;-59
2022/11/13 04:46:05;;;;;;;33.63;11.77;;;;;;;;;;5076613;28;20478;-59
2022/11/13 04:48:32;;;;;;;42.03;13.40;;;;;;;;;;5071474;28;20485;-60
2022/11/13 04:50:59;;;;;;;35.77;11.83;;;;;;;;;;5080084;28;20854;-59
2022/11/13 04:53:27;;;;;;;51.80;12.70;;;;;;;;;;5072893;28;20478;-59
2022/11/13 04:55:54;;;;;;;54.20;11.63;;;;;;;;;;5075392;28;20485;-60
2022/11/13 04:58:21;;;;;;;43.97;10.60;;;7.60;99.90;;;;;;5076488;28;20479;-60
2022/11/13 05:00:49;;;;;;;40.23;10.53;;;7.60;99.90;;;;;;5074828;28;20470;-60
2022/11/13 05:03:15;;;;;;;51.07;11.60;;;7.60;99.90;;;;;;5076154;28;20485;-60
2022/11/13 05:05:42;;;;;;;46.73;14.33;;;7.70;99.90;;;;;;5077123;28;20987;-60
2022/11/13 05:08:09;;;;;;;34.13;9.57;;;;;;;;;;5075190;28;20481;-60
2022/11/13 05:10:36;;;;;;;74.20;16.00;;;;;;;;;;5078230;28;20478;-60
2022/11/13 05:13:03;;;;;;;56.43;12.50;;;;;;;;;;5076283;28;20513;-60
2022/11/13 05:15:30;;;;;;;54.37;15.67;;;7.60;99.90;;;;;;5075820;28;20483;-60
2022/11/13 05:17:58;;;;;;;37.57;10.47;;;;;;;;;;5077747;28;21042;-60
2022/11/13 05:20:25;;;;;;;41.57;10.97;;;7.50;99.90;;;;;;5076444;28;20501;-61
2022/11/13 05:22:52;;;;;;;42.83;14.30;;;7.50;99.90;;;;;;5076529;28;20482;-60
2022/11/13 05:25:18;;;;;;;61.77;11.43;;;7.50;99.90;;;;;;5078836;28;20848;-60
2022/11/13 05:27:45;;;;;;;44.07;10.50;;;7.40;99.90;;;;;;5078705;28;20855;-60
2022/11/13 05:30:12;;;;;;;24.60;9.97;;;;;;;;;;5076311;28;20470;-60
2022/11/13 05:32:39;;;;;;;80.37;18.30;;;;;;;;;;5071049;28;20498;-60
2022/11/13 05:35:08;;;;;;;30.67;9.30;;;7.20;99.90;;;;;;5075669;28;21106;-60
2022/11/13 05:37:36;;;;;;;40.67;12.57;;;7.20;99.90;;;;;;5078939;28;20508;-60
2022/11/13 05:40:03;;;;;;;35.17;9.27;;;7.10;99.90;;;;;;5073174;28;20807;-61
2022/11/13 05:42:29;;;;;;;45.90;11.13;;;7.20;99.90;;;;;;5074783;28;20863;-60
2022/11/13 05:44:56;;;;;;;31.30;10.60;;;;;;;;;;5071691;28;20848;-60
2022/11/13 05:47:23;;;;;;;28.40;8.60;;;;;;;;;;5076115;28;20470;-61
2022/11/13 05:49:50;;;;;;;29.50;10.70;;;;;;;;;;5077978;28;20485;-60
2022/11/13 05:52:18;;;;;;;49.90;13.17;;;7.20;99.90;;;;;;5075655;28;20479;-61
2022/11/13 05:54:45;;;;;;;57.20;10.60;;;7.20;99.90;;;;;;5061186;28;20501;-60
2022/11/13 05:57:12;;;;;;;45.60;10.27;;;7.10;99.90;;;;;;5074814;28;21054;-61
2022/11/13 05:59:38;;;;;;;46.83;13.93;;;7.20;99.90;;;;;;5074460;28;22925;-60
2022/11/13 06:02:06;;;;;;;41.67;9.97;;;;;;;;;;5070522;28;20491;-60
2022/11/13 06:04:33;;;;;;;50.00;13.73;;;7.10;99.90;;;;;;5070896;28;20501;-60
2022/11/13 06:07:00;;;;;;;36.07;11.10;;;;;;;;;;5072692;28;20735;-60
2022/11/13 06:09:28;;;;;;;30.27;11.40;;;7.50;99.90;;;;;;5073379;28;20474;-60
2022/11/13 06:11:54;;;;;;;45.00;12.43;;;6.90;99.90;;;;;;5071484;28;21005;-60
2022/11/13 06:14:21;;;;;;;25.03;9.20;;;6.90;99.90;;;;;;5087181;28;20490;-60
2022/11/13 06:16:48;;;;;;;30.13;7.53;;;;;;;;;;5065301;28;20462;-60
2022/11/13 06:19:15;;;;;;;43.93;11.47;;;7.00;99.90;;;;;;5059322;28;20493;-60
2022/11/13 06:21:42;;;;;;;62.63;15.60;;;6.90;99.90;;;;;;5072326;28;20819;-60
2022/11/13 06:24:11;;;;;;;20.20;7.80;;;6.90;99.90;;;;;;5070415;28;20509;-60
2022/11/13 06:26:39;;;;;;;35.13;13.73;;;6.90;99.90;;;;;;5073640;28;20486;-60
2022/11/13 06:29:07;;;;;;;38.10;10.17;;;6.90;99.90;;;;;;5066400;28;20491;-60
2022/11/13 06:31:36;;;;;;;46.90;12.20;;;6.80;99.90;;;;;;5081122;28;20495;-60
2022/11/13 06:34:04;;;;;;;41.57;10.40;;;6.80;99.90;;;;;;5069982;28;20914;-60
2022/11/13 06:36:33;;;;;;;35.60;11.70;;;5.50;99.90;;;;;;5072436;28;20490;-60
2022/11/13 06:39:00;;;;;;;35.07;10.83;;;6.70;99.90;;;;;;5074108;28;20905;-61
2022/11/13 06:41:30;;;;;;;51.93;11.57;;;6.60;99.90;;;;;;5064923;28;20481;-60
2022/11/13 06:43:59;;;;;;;44.10;12.60;;;6.50;99.90;;;;;;5074776;28;20467;-60
2022/11/13 06:46:27;;;;;;;50.60;10.57;;;;;;;;;;5070007;28;20498;-60
2022/11/13 06:48:54;;;;;;;31.93;9.70;;;;;;;;;;5073607;28;20482;-60
2022/11/13 06:51:22;;;;;;;53.80;9.30;;;6.50;99.90;;;;;;5075085;28;20478;-60
2022/11/13 06:53:50;;;;;;;40.57;10.73;;;6.50;99.90;;;;;;5075428;28;20497;-60
2022/11/13 06:56:17;;;;;;;32.70;10.63;;;6.60;99.90;;;;;;5068919;28;20483;-60
2022/11/13 06:58:44;;;;;;;31.27;8.83;;;6.70;99.90;;;;;;5069239;28;20490;-60
2022/11/13 07:01:13;;;;;;;24.97;9.10;;;;;;;;;;5083668;28;20505;-60
2022/11/13 07:03:41;;;;;;;41.17;12.20;;;6.90;99.90;;;;;;5068371;28;20783;-60
2022/11/13 07:06:12;;;;;;;17.63;7.17;;;;;;;;;;5074841;28;20580;-60
2022/11/13 07:08:39;;;;;;;34.40;10.03;;;;;;;;;;5072760;28;20825;-60
2022/11/13 07:11:07;;;;;;;24.20;9.43;;;;;;;;;;5074222;28;20978;-60
2022/11/13 07:13:34;;;;;;;41.37;13.17;;;7.00;99.90;;;;;;5068469;28;20498;-60
2022/11/13 07:16:05;;;;;;;30.93;10.60;;;7.10;99.90;;;;;;5064433;28;20478;-60
2022/11/13 07:18:34;;;;;;;50.87;15.60;;;;;;;;;;5060147;28;20494;-60
2022/11/13 07:21:04;;;;;;;32.63;10.67;;;;;;;;;;5085756;28;20481;-60
2022/11/13 07:23:31;;;;;;;36.17;13.50;;;7.20;99.90;;;;;;5068464;28;20489;-60
2022/11/13 07:25:57;;;;;;;66.63;22.13;;;7.20;99.90;;;;;;5081423;28;20485;-60
2022/11/13 07:28:24;;;;;;;46.50;12.63;;;;;;;;;;5073678;28;20481;-60
2022/11/13 07:30:51;;;;;;;45.30;13.20;;;7.00;99.90;;;;;;5075898;28;20478;-60
2022/11/13 07:33:18;;;;;;;74.30;12.03;;;;;;;;;;5076475;28;20493;-60
2022/11/13 07:35:46;;;;;;;45.77;11.77;;;;;;;;;;5076549;28;20477;-60
2022/11/13 07:38:14;;;;;;;38.57;10.00;;;6.90;99.90;;;;;;5069978;28;20897;-60
2022/11/13 07:40:40;;;;;;;39.03;12.97;;;6.80;99.90;;;;;;5070449;28;20474;-60
2022/11/13 07:43:08;;;;;;;38.33;9.97;;;6.70;99.90;;;;;;5071879;28;20849;-60
2022/11/13 07:45:35;;;;;;;55.57;15.17;;;;;;;;;;5065699;28;20482;-60
2022/11/13 07:48:03;;;;;;;43.80;11.00;;;6.60;99.90;;;;;;5082622;28;20566;-60
2022/11/13 07:50:31;;;;;;;57.33;14.60;;;6.60;99.90;;;;;;5073055;28;20493;-60
2022/11/13 07:53:01;;;;;;;32.43;10.27;;;6.60;99.90;;;;;;5077955;28;20486;-59
2022/11/13 07:55:28;;;;;;;52.33;11.50;;;6.70;99.90;;;;;;5065454;28;20474;-60
2022/11/13 07:57:58;;;;;;;38.93;11.83;;;6.70;99.90;;;;;;5094232;28;20486;-59
2022/11/13 08:00:25;;;;;;;33.43;9.30;;;6.80;99.90;;;;;;5074265;28;20490;-59
2022/11/13 08:02:52;;;;;;;50.60;11.67;;;6.80;99.90;;;;;;5070880;28;20821;-60
2022/11/13 08:05:19;;;;;;;28.93;10.67;;;6.90;99.90;;;;;;5074789;28;20926;-60
2022/11/13 08:07:48;;;;;;;42.13;9.70;;;7.00;99.90;;;;;;5074168;28;20965;-60
2022/11/13 08:10:17;;;;;;;40.17;9.20;;;7.10;99.90;;;;;;5076570;28;20502;-60
2022/11/13 08:12:44;;;;;;;34.20;13.20;;;7.30;99.90;;;;;;5074669;28;20998;-60
2022/11/13 08:15:11;;;;;;;25.47;9.40;;;;;;;;;;5071809;28;20474;-61
2022/11/13 08:17:38;;;;;;;37.43;9.83;;;7.80;99.90;;;;;;5077225;28;20481;-60
2022/11/13 08:20:06;;;;;;;24.17;8.50;;;;;;;;;;5071382;28;20489;-61
2022/11/13 08:22:34;;;;;;;40.37;14.87;;;;;;;;;;5071630;28;20478;-60
2022/11/13 08:25:00;;;;;;;26.13;8.67;;;8.30;99.90;;;;;;5074535;28;20865;-60
2022/11/13 08:27:29;;;;;;;21.53;10.17;;;8.30;99.90;;;;;;5075071;28;20572;-60
2022/11/13 08:29:55;;;;;;;35.37;10.87;;;8.40;99.90;;;;;;5076005;28;20482;-60
2022/11/13 08:32:22;;;;;;;31.73;10.53;;;;;;;;;;5077484;28;20470;-60
2022/11/13 08:34:50;;;;;;;19.43;9.50;;;;;;;;;;5068635;28;20995;-60
2022/11/13 08:37:17;;;;;;;35.73;9.50;;;;;;;;;;5076999;28;20486;-61
2022/11/13 08:39:44;;;;;;;15.50;8.30;;;;;;;;;;5062431;28;20828;-60
2022/11/13 08:42:10;;;;;;;15.53;8.80;;;12.80;99.90;;;;;;5075009;28;20830;-62
2022/11/13 08:44:38;;;;;;;21.87;10.17;;;13.70;98.80;;;;;;5073621;28;20486;-61
2022/11/13 08:47:05;;;;;;;26.20;9.80;;;14.40;97.30;;;;;;5076210;28;20482;-62
2022/11/13 08:49:32;;;;;;;13.67;9.77;;;14.80;96.20;;;;;;5073485;28;20491;-61
2022/11/13 08:51:59;;;;;;;16.67;7.67;;;15.00;95.60;;;;;;5071385;28;20818;-61
2022/11/13 08:54:26;;;;;;;30.07;8.27;;;15.10;95.60;;;;;;5068113;28;20497;-61
2022/11/13 08:56:53;;;;;;;18.87;7.50;;;15.10;95.20;;;;;;5069157;28;20495;-62
2022/11/13 08:59:22;;;;;;;19.80;8.43;;;15.00;95.30;;;;;;5085765;28;20479;-63
2022/11/13 09:01:57;;;;;;;24.53;8.50;;;14.80;95.30;;;;;;5076071;28;20598;-61
2022/11/13 09:04:24;;;;;;;15.73;8.30;;;;;;;;;;5079025;28;20911;-61
2022/11/13 09:06:51;;;;;;;24.67;8.83;;;14.50;95.70;;;;;;5068198;28;20481;-61
2022/11/13 09:09:18;;;;;;;23.13;9.67;;;14.30;95.80;;;;;;5073542;28;20474;-61
2022/11/13 09:11:45;;;;;;;13.23;8.53;;;14.30;96.10;;;;;;5069833;28;20486;-61
2022/11/13 09:14:12;;;;;;;36.50;9.00;;;14.10;96.10;;;;;;5084727;28;20482;-62
2022/11/13 09:16:39;;;;;;;31.97;11.00;;;14.00;95.80;;;;;;5071166;28;20470;-61
2022/11/13 09:19:07;;;;;;;25.40;8.70;;;13.90;95.90;;;;;;5066000;28;20490;-62
2022/11/13 09:21:34;;;;;;;21.80;7.43;;;13.80;95.90;;;;;;5078679;28;20503;-61
2022/11/13 09:24:00;;;;;;;21.77;8.50;;;13.70;96.30;;;;;;5060711;28;20504;-61
2022/11/13 09:26:27;;;;;;;38.00;12.33;;;13.70;96.70;;;;;;5067861;28;20501;-61
2022/11/13 09:28:54;;;;;;;21.40;9.13;;;;;;;;;;5056755;28;20497;-61
2022/11/13 09:31:21;;;;;;;21.73;10.60;;;13.70;96.50;;;;;;5079298;28;20480;-61
2022/11/13 09:33:48;;;;;;;18.70;8.87;;;;;;;;;;5072665;28;20474;-61
2022/11/13 09:36:17;;;;;;;22.80;9.50;;;;;;;;;;5061690;28;20510;-61
2022/11/13 09:38:44;;;;;;;29.40;9.63;;;14.00;97.40;;;;;;5070150;28;20536;-61
2022/11/13 09:41:12;;;;;;;24.33;10.33;;;;;;;;;;5069791;28;20497;-61
2022/11/13 09:43:41;;;;;;;41.43;12.40;;;;;;;;;;5071493;28;20485;-61
2022/11/13 09:46:17;;;;;;;24.70;9.27;;;14.30;97.10;;;;;;5072204;28;20490;-61
2022/11/13 09:48:47;;;;;;;20.37;9.70;;;;;;;;;;5074166;28;20478;-61
2022/11/13 09:51:15;;;;;;;26.57;9.73;;;;;;;;;;5071018;28;20591;-61
2022/11/13 09:53:44;;;;;;;21.43;11.83;;;;;;;;;;5072433;28;20577;-61
2022/11/13 09:56:21;;;;;;;16.17;7.47;;;14.60;96.40;;;;;;5070509;28;20814;-61
2022/11/13 09:58:57;;;;;;;19.10;9.80;;;14.70;96.40;;;;;;5077337;28;20474;-62
2022/11/13 10:01:33;;;;;;;31.00;9.77;;;14.80;96.60;;;;;;5073973;28;20473;-61
2022/11/13 10:04:06;;;;;;;21.60;9.67;;;14.90;96.40;;;;;;5064712;28;20534;-61
2022/11/13 10:06:49;;;;;;;27.47;10.30;;;14.90;95.70;;;;;;5057893;28;20973;-62
2022/11/13 10:09:29;;;;;;;25.60;8.27;;;15.00;96.10;;;;;;5075991;28;20488;-61
2022/11/13 10:11:59;;;;;;;31.13;9.20;;;14.90;96.50;;;;;;5074820;28;20840;-61
2022/11/13 10:14:30;;;;;;;27.80;10.30;;;;;;;;;;5068089;28;20481;-61
2022/11/13 10:16:59;;;;;;;29.30;8.40;;;;;;;;;;5074291;28;20481;-62
2022/11/13 10:19:32;;;;;;;28.10;7.70;;;15.20;96.70;;;;;;5075619;28;20490;-61
2022/11/13 10:22:04;;;;;;;32.13;9.27;;;15.30;96.70;;;;;;5071301;28;20470;-61
2022/11/13 10:24:40;;;;;;;23.13;10.10;;;;;;;;;;5069541;28;20479;-62
2022/11/13 10:27:09;;;;;;;24.60;8.00;;;15.40;96.00;;;;;;5064923;28;20476;-62
2022/11/13 10:29:36;;;;;;;32.57;9.50;;;;;;;;;;5066456;28;20885;-61
2022/11/13 10:32:16;;;;;;;24.80;7.50;;;15.40;95.80;;;;;;5076804;28;20485;-61
2022/11/13 10:34:46;;;;;;;33.70;11.20;;;15.50;96.20;;;;;;5065504;28;20547;-61
2022/11/13 10:37:30;;;;;;;43.57;7.83;;;15.50;96.10;;;;;;5070389;28;20975;-61
2022/11/13 10:39:58;;;;;;;17.63;7.80;;;15.50;95.50;;;;;;5074404;28;20522;-62
2022/11/13 10:42:34;;;;;;;21.17;7.07;;;15.40;95.20;;;;;;5064023;28;20483;-61
2022/11/13 10:45:01;;;;;;;21.33;7.30;;;15.40;96.00;;;;;;5069218;28;20476;-61
2022/11/13 10:47:31;;;;;;;18.47;8.27;;;15.30;95.90;;;;;;5067801;28;20498;-62
2022/11/13 10:50:08;;;;;;;35.17;8.87;;;15.40;96.40;;;;;;5077384;28;20482;-61
2022/11/13 10:52:43;;;;;;;26.13;10.83;;;15.50;96.40;;;;;;5065495;28;20486;-62
2022/11/13 10:55:16;;;;;;;24.13;6.70;;;;;;;;;;5066999;28;20478;-61
2022/11/13 10:57:44;;;;;;;18.33;7.50;;;;;;;;;;5057048;28;20478;-62
2022/11/13 11:00:21;;;;;;;14.00;6.10;;;;;;;;;;5069795;28;20512;-61
2022/11/13 11:02:49;;;;;;;31.13;11.00;;;15.70;95.20;;;;;;5061634;28;20483;-62
2022/11/13 11:05:20;;;;;;;24.70;7.57;;;15.80;96.20;;;;;;5074007;28;20983;-62
2022/11/13 11:07:48;;;;;;;34.07;9.17;;;15.90;96.20;;;;;;5063282;28;20646;-61
2022/11/13 11:10:24;;;;;;;18.67;6.20;;;;;;;;;;5073569;28;21052;-61
2022/11/13 11:12:55;;;;;;;22.73;9.13;;;;;;;;;;5061949;28;20516;-60
2022/11/13 11:15:26;;;;;;;23.63;8.20;;;16.20;95.40;;;;;;5077448;28;20595;-61
2022/11/13 11:17:59;;;;;;;19.50;6.83;;;16.20;95.20;;;;;;5072694;28;20515;-61
2022/11/13 11:20:38;;;;;;;21.30;6.87;;;16.10;94.20;;;;;;5053439;28;20477;-61
2022/11/13 11:23:17;;;;;;;40.87;6.20;;;16.10;94.30;;;;;;5049853;28;20912;-61
2022/11/13 11:25:51;;;;;;;21.20;8.93;;;16.10;94.60;;;;;;5079390;28;20514;-62
2022/11/13 11:28:29;;;;;;;23.23;7.27;;;16.10;94.90;;;;;;5088999;28;20496;-62
2022/11/13 11:31:00;;;;;;;16.70;6.47;;;;;;;;;;5062791;28;20901;-61
2022/11/13 11:33:34;;;;;;;25.23;7.60;;;16.30;94.60;;;;;;5074500;28;20839;-62
2022/11/13 11:36:08;;;;;;;28.53;6.93;;;16.40;94.30;;;;;;5065320;28;20855;-61
2022/11/13 11:38:43;;;;;;;26.00;9.37;;;16.40;94.10;;;;;;5078217;28;20485;-62
2022/11/13 11:41:14;;;;;;;23.07;7.23;;;18.00;95.20;;;;;;5071746;28;20576;-62
2022/11/13 11:43:44;;;;;;;11.93;5.30;;;16.30;93.70;;;;;;5083742;28;20967;-62
2022/11/13 11:46:13;;;;;;;10.40;5.20;;;16.30;94.40;;;;;;5082660;28;21022;-62
2022/11/13 11:48:40;;;;;;;25.33;5.40;;;16.40;94.50;;;;;;5078244;28;20482;-62
2022/11/13 11:51:17;;;;;;;22.00;7.60;;;16.40;94.20;;;;;;5074356;28;20514;-62
2022/11/13 11:53:50;;;;;;;18.40;8.27;;;;;;;;;;5073650;28;20565;-61
2022/11/13 11:56:23;;;;;;;18.63;7.70;;;16.50;94.10;;;;;;5077700;28;20493;-63
2022/11/13 11:59:09;;;;;;;30.93;7.07;;;16.60;94.50;;;;;;5077312;28;20838;-62
2022/11/13 12:02:18;;;;;;;12.70;6.57;;;16.60;94.30;;;;;;5075906;28;20580;-61
2022/11/13 12:04:59;;;;;;;24.53;7.40;;;16.70;94.20;;;;;;5069294;28;20520;-62
2022/11/13 12:07:33;;;;;;;21.47;6.30;;;;;;;;;;5073221;28;20954;-62
2022/11/13 12:10:07;;;;;;;25.17;6.80;;;16.70;93.70;;;;;;5069824;28;20480;-62
2022/11/13 12:12:47;;;;;;;10.77;6.60;;;16.70;93.30;;;;;;5073286;28;20931;-62
2022/11/13 12:15:20;;;;;;;11.87;5.23;;;16.70;93.70;;;;;;5078102;28;20486;-62
2022/11/13 12:17:52;;;;;;;19.97;5.67;;;;;;;;;;5077226;28;20513;-62
2022/11/13 12:20:24;;;;;;;20.07;7.13;;;;;;;;;;5075026;28;20478;-62
2022/11/13 12:23:03;;;;;;;13.87;8.13;;;;;;;;;;5075509;28;20524;-62
2022/11/13 12:25:35;;;;;;;16.50;4.30;;;17.10;93.80;;;;;;5074921;28;20495;-61
2022/11/13 12:28:12;;;;;;;13.03;5.63;;;17.20;93.40;;;;;;5070207;28;20482;-62
2022/11/13 12:30:53;;;;;;;28.60;6.70;;;17.30;93.20;;;;;;5062789;28;20466;-62
2022/11/13 12:33:30;;;;;;;20.73;6.13;;;17.30;92.80;;;;;;5076433;28;20452;-62
2022/11/13 12:35:57;;;;;;;18.07;5.20;;;17.30;92.70;;;;;;5078635;28;20457;-62
2022/11/13 12:38:34;;;;;;;14.67;5.67;;;17.40;92.20;;;;;;5078760;28;20482;-62
2022/11/13 12:41:11;;;;;;;14.77;5.23;;;17.50;91.50;;;;;;5073482;28;20481;-61
2022/11/13 12:44:02;;;;;;;9.40;3.87;;;17.60;90.00;;;;;;5069739;28;20469;-62
2022/11/13 12:46:39;;;;;;;16.87;3.83;;;;;;;;;;5071099;28;20445;-62
2022/11/13 12:49:25;;;;;;;8.33;3.30;;;17.40;86.40;;;;;;5076219;28;20478;-62
2022/11/13 12:51:55;;;;;;;13.53;4.77;;;17.30;86.70;;;;;;5059909;28;20542;-62
2022/11/13 12:54:26;;;;;;;13.70;5.97;;;17.30;86.50;;;;;;5083176;28;20477;-62
2022/11/13 12:56:53;;;;;;;23.07;4.10;;;;;;;;;;5069969;28;20949;-62
2022/11/13 12:59:33;;;;;;;19.13;5.10;;;17.30;87.80;;;;;;5071945;28;20466;-61
2022/11/13 13:02:29;;;;;;;14.23;4.03;;;17.40;86.60;;;;;;5069984;28;21303;-61
2022/11/13 13:05:08;;;;;;;21.03;5.27;;;17.40;86.00;;;;;;5063793;28;21009;-61
2022/11/13 13:07:52;;;;;;;10.50;3.37;;;17.40;82.20;;;;;;5061920;28;20488;-61
2022/11/13 13:10:24;;;;;;;13.33;3.63;;;17.40;83.50;;;;;;5085749;28;20900;-60
2022/11/13 13:12:58;;;;;;;12.07;3.80;;;17.30;81.80;;;;;;5076049;28;20509;-61
2022/11/13 13:15:33;;;;;;;4.20;2.70;;;17.40;82.80;;;;;;5077521;28;20454;-62
2022/11/13 13:18:05;;;;;;;18.33;3.37;;;17.40;81.70;;;;;;5071561;28;20492;-61
2022/11/13 13:20:35;;;;;;;15.47;3.23;;;17.50;84.70;;;;;;5072323;28;20491;-61